Time;durP1;ratioP1;P1;durP2;ratioP2;P2;SDS_P1;SDS_P2;PMS_P1;PMS_P2;Temp;Humidity;BMP_temperature;BMP_pressure;BME280_temperature;BME280_humidity;BME280_pressure;Samples;Min_cycle;Max_cycle;Signal;HPM_P1;HPM_P2
2022/08/23 00:01:16;;;;;;;8.30;3.90;;;;;;;;;;5077186;28;20351;-67
2022/08/23 00:03:42;;;;;;;10.88;5.40;;;;;;;;;;5073789;28;20105;-67
2022/08/23 00:06:09;;;;;;;10.57;5.40;;;;;;;;;;5084166;28;20100;-67
2022/08/23 00:08:35;;;;;;;10.98;4.82;;;;;;;;;;5080654;28;20033;-67
2022/08/23 00:11:01;;;;;;;10.18;5.00;;;;;;;;;;5078318;28;20131;-68
2022/08/23 00:13:28;;;;;;;10.13;4.72;;;;;;;;;;5085394;28;20071;-67
2022/08/23 00:15:54;;;;;;;10.82;4.80;;;;;;;;;;5083453;28;20052;-67
2022/08/23 00:18:21;;;;;;;8.45;4.28;;;;;;;;;;5076524;28;20082;-67
2022/08/23 00:20:47;;;;;;;11.35;5.18;;;;;;;;;;5093168;28;20102;-67
2022/08/23 00:23:13;;;;;;;11.55;4.70;;;;;;;;;;5089098;28;20043;-67
2022/08/23 00:25:40;;;;;;;10.13;6.18;;;;;;;;;;5082402;28;20092;-67
2022/08/23 00:28:07;;;;;;;11.00;4.82;;;;;;;;;;5089568;28;20043;-67
2022/08/23 00:30:34;;;;;;;10.30;5.50;;;;;;;;;;5079495;28;20123;-67
2022/08/23 00:33:00;;;;;;;10.88;5.43;;;;;;;;;;5086887;28;20044;-67
2022/08/23 00:35:26;;;;;;;10.85;5.13;;;;;;;;;;5081141;28;20048;-67
2022/08/23 00:37:53;;;;;;;11.60;6.20;;;;;;;;;;5089026;28;20032;-67
2022/08/23 00:40:19;;;;;;;11.52;6.00;;;;;;;;;;5076872;28;20056;-67
2022/08/23 00:48:26;;;;;;;11.90;7.35;;;;;;;;;;5083174;28;20446;-67
2022/08/23 00:50:55;;;;;;;16.05;7.22;;;;;;;;;;5077797;28;20130;-68
2022/08/23 00:53:24;;;;;;;10.40;4.93;;;;;;;;;;5078607;28;20040;-67
2022/08/23 00:55:51;;;;;;;10.27;5.40;;;;;;;;;;5082403;28;20047;-67
2022/08/23 00:58:19;;;;;;;13.30;8.00;;;;;;;;;;5075873;28;20552;-67
2022/08/23 01:00:46;;;;;;;8.98;5.28;;;;;;;;;;5079266;28;20084;-67
2022/08/23 01:03:13;;;;;;;10.80;6.10;;;;;;;;;;5079015;28;20052;-68
2022/08/23 01:05:44;;;;;;;12.63;6.88;;;;;;;;;;5079544;28;20052;-67
2022/08/23 01:08:11;;;;;;;14.50;7.38;;;;;;;;;;5079877;28;20051;-67
2022/08/23 01:10:41;;;;;;;10.80;7.47;;;;;;;;;;5083146;28;20136;-67
2022/08/23 01:13:13;;;;;;;20.73;9.52;;;;;;;;;;5081866;28;20735;-67
2022/08/23 01:15:46;;;;;;;15.63;9.05;;;;;;;;;;5079289;28;20053;-67
2022/08/23 01:18:13;;;;;;;16.40;9.52;;;;;;;;;;5079002;28;20410;-67
2022/08/23 01:20:48;;;;;;;14.15;8.95;;;;;;;;;;5065663;28;20036;-67
2022/08/23 01:23:35;;;;;;;18.02;9.82;;;;;;;;;;5080941;28;20048;-67
2022/08/23 01:26:01;;;;;;;12.90;9.20;;;;;;;;;;5098622;27;20055;-67
2022/08/23 01:28:28;;;;;;;19.70;10.52;;;;;;;;;;5075465;28;20066;-68
2022/08/23 01:30:54;;;;;;;16.17;9.70;;;;;;;;;;5079091;28;20054;-67
2022/08/23 01:33:20;;;;;;;20.20;11.27;;;;;;;;;;5075971;28;20040;-67
2022/08/23 01:35:49;;;;;;;18.77;10.75;;;;;;;;;;5084620;28;22044;-67
2022/08/23 01:38:16;;;;;;;17.02;10.45;;;;;;;;;;5080073;28;20486;-67
2022/08/23 01:40:43;;;;;;;17.65;11.60;;;;;;;;;;5074764;28;20036;-67
2022/08/23 01:43:11;;;;;;;20.02;11.52;;;;;;;;;;5074485;28;20102;-67
2022/08/23 01:45:37;;;;;;;18.70;10.85;;;;;;;;;;5074154;28;20055;-67
2022/08/23 01:48:04;;;;;;;18.50;10.82;;;;;;;;;;5076904;28;20491;-67
2022/08/23 01:50:30;;;;;;;17.20;11.13;;;;;;;;;;5088752;28;20078;-67
2022/08/23 01:52:57;;;;;;;19.02;11.20;;;;;;;;;;5076405;28;20044;-67
2022/08/23 01:55:23;;;;;;;15.95;11.90;;;;;;;;;;5076446;28;20055;-67
2022/08/23 01:57:51;;;;;;;21.35;12.75;;;;;;;;;;5081957;28;20044;-67
2022/08/23 02:00:18;;;;;;;18.42;12.52;;;;;;;;;;5076611;28;20055;-67
2022/08/23 02:02:45;;;;;;;20.75;12.00;;;;;;;;;;5071993;28;20048;-67
2022/08/23 02:05:12;;;;;;;21.70;11.93;;;;;;;;;;5082944;28;20043;-67
2022/08/23 02:07:38;;;;;;;18.73;13.05;;;;;;;;;;5077009;28;20108;-67
2022/08/23 02:10:06;;;;;;;19.35;12.20;;;;;;;;;;5077929;28;20044;-67
2022/08/23 02:12:32;;;;;;;22.25;12.68;;;;;;;;;;5084649;28;20044;-67
2022/08/23 02:14:58;;;;;;;25.65;12.07;;;;;;;;;;5076234;28;20071;-68
2022/08/23 02:17:24;;;;;;;17.88;13.18;;;;;;;;;;5088518;28;20051;-67
2022/08/23 02:19:51;;;;;;;16.02;11.88;;;;;;;;;;5078751;28;20043;-67
2022/08/23 02:22:17;;;;;;;20.70;12.57;;;;;;;;;;5081989;28;20040;-68
2022/08/23 02:24:44;;;;;;;17.05;12.68;;;;;;;;;;5079136;28;20039;-67
2022/08/23 02:27:14;;;;;;;18.83;12.95;;;;;;;;;;5081269;28;20036;-67
2022/08/23 02:29:41;;;;;;;21.67;12.55;;;;;;;;;;5080420;28;20174;-67
2022/08/23 02:32:08;;;;;;;25.75;13.35;;;;;;;;;;5073283;28;20040;-67
2022/08/23 02:34:34;;;;;;;22.20;12.88;;;;;;;;;;5078482;28;20043;-67
2022/08/23 02:37:00;;;;;;;20.40;12.98;;;;;;;;;;5078718;28;20056;-67
2022/08/23 02:39:28;;;;;;;20.17;13.93;;;;;;;;;;5086669;28;20080;-68
2022/08/23 02:41:54;;;;;;;22.83;14.07;;;;;;;;;;5081712;28;20050;-68
2022/08/23 02:44:20;;;;;;;22.55;15.40;;;;;;;;;;5079638;28;20036;-67
2022/08/23 02:46:47;;;;;;;19.15;14.25;;;;;;;;;;5089459;28;20048;-67
2022/08/23 02:49:14;;;;;;;20.48;14.40;;;;;;;;;;5069219;28;20075;-67
2022/08/23 02:54:06;;;;;;;24.35;15.00;;;;;;;;;;5076511;28;20020;-67
2022/08/23 02:56:33;;;;;;;19.88;13.90;;;;;;;;;;5080362;28;20043;-67
2022/08/23 02:58:59;;;;;;;15.80;13.02;;;;;;;;;;5073842;28;20478;-67
2022/08/23 03:01:27;;;;;;;18.20;14.73;;;;;;;;;;5079071;28;20171;-67
2022/08/23 03:03:53;;;;;;;19.90;13.98;;;;;;;;;;5076410;28;20048;-67
2022/08/23 03:06:20;;;;;;;20.92;14.07;;;;;;;;;;5057715;28;20060;-67
2022/08/23 03:08:46;;;;;;;19.15;14.07;;;;;;;;;;5076466;28;20104;-67
2022/08/23 03:11:13;;;;;;;20.30;14.68;;;;;;;;;;5076361;28;20059;-67
2022/08/23 03:13:40;;;;;;;17.83;13.05;;;;;;;;;;5081810;28;20083;-67
2022/08/23 03:16:07;;;;;;;21.50;13.43;;;;;;;;;;5092730;28;20048;-67
2022/08/23 03:18:35;;;;;;;21.60;13.88;;;;;;;;;;5062965;28;20048;-68
2022/08/23 03:21:01;;;;;;;26.00;15.48;;;;;;;;;;5076104;28;20093;-67
2022/08/23 03:23:28;;;;;;;19.95;14.25;;;;;;;;;;5075824;28;20040;-68
2022/08/23 03:25:56;;;;;;;23.48;15.02;;;;;;;;;;5076271;28;20040;-67
2022/08/23 03:28:22;;;;;;;21.63;15.25;;;;;;;;;;5079290;28;20048;-67
2022/08/23 03:30:48;;;;;;;21.83;15.18;;;;;;;;;;5076939;28;20101;-67
2022/08/23 03:33:15;;;;;;;27.08;15.27;;;;;;;;;;5075616;28;20640;-67
2022/08/23 03:35:42;;;;;;;23.15;14.32;;;;;;;;;;5084629;28;20440;-67
2022/08/23 03:38:08;;;;;;;18.90;14.30;;;;;;;;;;5078912;28;20329;-68
2022/08/23 03:40:34;;;;;;;22.65;15.05;;;;;;;;;;5079113;28;20109;-67
2022/08/23 03:43:00;;;;;;;19.20;15.13;;;;;;;;;;5071308;28;20035;-67
2022/08/23 03:45:27;;;;;;;21.15;15.00;;;;;;;;;;5074249;28;20054;-67
2022/08/23 03:47:54;;;;;;;20.52;15.63;;;;;;;;;;5066642;28;20537;-67
2022/08/23 03:50:20;;;;;;;18.65;14.05;;;;;;;;;;5073050;28;20075;-67
2022/08/23 03:52:47;;;;;;;20.98;14.82;;;;;;;;;;5078863;28;20119;-67
2022/08/23 03:55:14;;;;;;;22.85;15.15;;;;;;;;;;5073916;28;20062;-68
2022/08/23 03:57:40;;;;;;;17.05;13.35;;;;;;;;;;5078323;28;20059;-67
2022/08/23 04:00:07;;;;;;;16.42;12.48;;;;;;;;;;5074937;28;20094;-67
2022/08/23 04:02:34;;;;;;;15.52;11.77;;;;;;;;;;5075831;28;20044;-67
2022/08/23 04:05:00;;;;;;;14.63;11.15;;;;;;;;;;5073038;28;20050;-67
2022/08/23 04:07:26;;;;;;;16.30;11.32;;;;;;;;;;5076949;28;20483;-67
2022/08/23 04:09:53;;;;;;;16.40;10.90;;;;;;;;;;5074688;28;20041;-67
2022/08/23 04:12:20;;;;;;;19.27;11.38;;;;;;;;;;5076212;28;20181;-67
2022/08/23 04:14:47;;;;;;;17.98;12.02;;;;;;;;;;5083111;28;20531;-67
2022/08/23 04:17:13;;;;;;;16.70;11.77;;;;;;;;;;5071774;28;20044;-67
2022/08/23 04:19:40;;;;;;;14.27;9.90;;;;;;;;;;5074452;28;20439;-67
2022/08/23 04:22:10;;;;;;;14.55;10.57;;;;;;;;;;5077551;28;20653;-67
2022/08/23 04:24:37;;;;;;;15.75;11.10;;;;;;;;;;5072545;28;20136;-67
2022/08/23 04:27:03;;;;;;;17.75;10.30;;;;;;;;;;5076796;28;20459;-67
2022/08/23 04:29:30;;;;;;;15.48;11.93;;;;;;;;;;5079837;28;20093;-67
2022/08/23 04:31:56;;;;;;;16.92;12.20;;;;;;;;;;5074151;28;20068;-67
2022/08/23 04:34:22;;;;;;;17.30;12.38;;;;;;;;;;5077925;28;20044;-67
2022/08/23 04:36:48;;;;;;;17.75;13.13;;;;;;;;;;5074797;28;22066;-67
2022/08/23 04:39:15;;;;;;;18.65;12.07;;;;;;;;;;5074408;28;20386;-67
2022/08/23 04:44:26;;;;;;;9.93;7.45;;;;;;;;;;5085469;28;20046;-67
2022/08/23 04:46:52;;;;;;;14.43;9.82;;;;;;;;;;5083416;28;20043;-67
2022/08/23 04:49:18;;;;;;;17.88;10.75;;;;;;;;;;5086014;28;20159;-67
2022/08/23 04:51:45;;;;;;;20.13;14.07;;;;;;;;;;5080410;28;20062;-67
2022/08/23 04:54:11;;;;;;;17.50;11.75;;;;;;;;;;5087756;28;20039;-67
2022/08/23 04:56:38;;;;;;;11.25;8.73;;;;;;;;;;5079021;28;20052;-68
2022/08/23 04:59:04;;;;;;;20.42;12.82;;;;;;;;;;5080511;28;20072;-67
2022/08/23 05:01:30;;;;;;;12.93;10.32;;;;;;;;;;5087539;28;20163;-66
2022/08/23 05:03:56;;;;;;;11.15;8.45;;;;;;;;;;5081989;28;20073;-67
2022/08/23 05:06:23;;;;;;;20.08;10.52;;;;;;;;;;5079220;28;20051;-67
2022/08/23 05:08:49;;;;;;;15.85;10.77;;;;;;;;;;5082014;28;20433;-67
2022/08/23 05:11:17;;;;;;;19.52;11.15;;;;;;;;;;5085724;28;20048;-67
2022/08/23 05:13:44;;;;;;;14.00;10.52;;;;;;;;;;5091575;28;20555;-67
2022/08/23 05:16:10;;;;;;;10.43;8.95;;;;;;;;;;5089331;28;20496;-67
2022/08/23 05:18:36;;;;;;;13.35;10.30;;;;;;;;;;5090420;28;20127;-67
2022/08/23 05:21:03;;;;;;;10.77;9.68;;;;;;;;;;5092284;28;20036;-67
2022/08/23 05:23:29;;;;;;;15.88;12.02;;;;;;;;;;5092330;28;20147;-67
2022/08/23 05:25:55;;;;;;;26.58;14.60;;;;;;;;;;5092058;28;20050;-67
2022/08/23 05:28:23;;;;;;;20.23;12.85;;;;;;;;;;5081918;28;20127;-67
2022/08/23 05:31:00;;;;;;;18.45;13.90;;;;;;;;;;5087143;28;20058;-68
2022/08/23 05:33:27;;;;;;;15.15;11.85;;;;;;;;;;5084617;28;20498;-67
2022/08/23 05:35:53;;;;;;;18.00;12.30;;;;;;;;;;5083592;28;20055;-66
2022/08/23 05:38:20;;;;;;;22.65;13.73;;;;;;;;;;5085318;28;20040;-67
2022/08/23 05:40:49;;;;;;;20.33;14.35;;;;;;;;;;5079036;28;20041;-66
2022/08/23 05:43:15;;;;;;;22.48;15.00;;;;;;;;;;5077061;28;20040;-66
2022/08/23 05:45:41;;;;;;;21.17;15.25;;;;;;;;;;5088541;28;20027;-66
2022/08/23 05:48:07;;;;;;;24.42;14.93;;;;;;;;;;5088365;28;20047;-66
2022/08/23 05:50:35;;;;;;;23.58;15.13;;;;;;;;;;5092460;28;20505;-67
2022/08/23 05:53:02;;;;;;;20.00;14.35;;;;;;;;;;5083108;28;20049;-65
2022/08/23 05:55:28;;;;;;;22.63;15.30;;;;;;;;;;5080282;28;20077;-68
2022/08/23 05:57:54;;;;;;;16.63;14.80;;;;;;;;;;5076613;28;20052;-66
2022/08/23 06:00:21;;;;;;;22.17;15.95;;;;;;;;;;5084721;28;20080;-66
2022/08/23 06:02:48;;;;;;;20.52;15.32;;;;;;;;;;5083780;28;20502;-66
2022/08/23 06:05:14;;;;;;;21.98;15.32;;;;;;;;;;5084506;28;20071;-66
2022/08/23 06:07:41;;;;;;;18.92;15.50;;;;;;;;;;5087386;28;20047;-66
2022/08/23 06:10:07;;;;;;;21.58;16.13;;;;;;;;;;5079300;28;20150;-66
2022/08/23 06:12:34;;;;;;;20.85;16.40;;;;;;;;;;5086115;28;20043;-66
2022/08/23 06:15:00;;;;;;;22.92;16.67;;;;;;;;;;5085604;28;20284;-66
2022/08/23 06:17:27;;;;;;;26.00;17.20;;;;;;;;;;5085661;28;20451;-66
2022/08/23 06:19:53;;;;;;;27.40;17.67;;;;;;;;;;5091510;28;20153;-67
2022/08/23 06:22:19;;;;;;;25.63;18.10;;;;;;;;;;5085930;28;20052;-66
2022/08/23 06:24:46;;;;;;;22.83;16.85;;;;;;;;;;5101976;27;20088;-66
2022/08/23 06:27:14;;;;;;;25.88;19.10;;;;;;;;;;5088637;28;20130;-66
2022/08/23 06:29:40;;;;;;;24.17;16.58;;;;;;;;;;5085046;28;20044;-66
2022/08/23 06:32:07;;;;;;;22.60;16.75;;;;;;;;;;5084549;28;20460;-67
2022/08/23 06:34:36;;;;;;;27.95;18.27;;;;;;;;;;5085024;28;21854;-66
2022/08/23 06:37:04;;;;;;;24.98;17.38;;;;;;;;;;5086478;28;20547;-66
2022/08/23 06:39:30;;;;;;;21.77;17.15;;;;;;;;;;5082115;28;20534;-67
2022/08/23 06:41:59;;;;;;;25.38;16.65;;;;;;;;;;5087662;28;20067;-66
2022/08/23 06:44:26;;;;;;;23.63;17.48;;;;;;;;;;5086073;28;20074;-66
2022/08/23 06:46:55;;;;;;;22.23;15.90;;;;;;;;;;5082924;28;20600;-66
2022/08/23 06:49:22;;;;;;;19.52;15.25;;;;;;;;;;5093721;28;20063;-66
2022/08/23 06:51:49;;;;;;;20.00;14.30;;;;;;;;;;5083487;28;20459;-66
2022/08/23 06:54:16;;;;;;;20.60;15.55;;;;;;;;;;5098209;28;20131;-66
2022/08/23 06:56:43;;;;;;;18.63;14.15;;;;;;;;;;5093036;28;20036;-66
2022/08/23 06:59:10;;;;;;;20.55;14.93;;;;;;;;;;5096149;28;20326;-66
2022/08/23 07:01:45;;;;;;;19.05;15.55;;;;;;;;;;5094600;28;20094;-66
2022/08/23 07:04:12;;;;;;;19.05;14.50;;;;;;;;;;5110345;27;20419;-66
2022/08/23 07:06:38;;;;;;;17.85;13.23;;;;;;;;;;5091632;28;20036;-66
2022/08/23 07:09:05;;;;;;;30.15;13.43;;;;;;;;;;5087758;28;20135;-66
2022/08/23 07:11:32;;;;;;;17.77;13.23;;;;;;;;;;5087288;28;20047;-66
2022/08/23 07:13:59;;;;;;;20.73;13.43;;;;;;;;;;5090370;28;20048;-66
2022/08/23 07:16:26;;;;;;;19.33;12.43;;;;;;;;;;5083167;28;20149;-66
2022/08/23 07:18:54;;;;;;;16.45;11.93;;;;;;;;;;5087212;28;20051;-66
2022/08/23 07:21:21;;;;;;;15.57;11.80;;;;;;;;;;5082988;28;20039;-66
2022/08/23 07:23:47;;;;;;;16.27;12.50;;;;;;;;;;5089451;28;20124;-66
2022/08/23 07:26:14;;;;;;;19.73;12.68;;;;;;;;;;5092672;28;20048;-67
2022/08/23 07:28:41;;;;;;;18.10;12.00;;;;;;;;;;5099000;28;21863;-66
2022/08/23 07:31:17;;;;;;;21.05;11.35;;;;;;;;;;5096815;28;20035;-66
2022/08/23 07:33:44;;;;;;;17.75;12.10;;;;;;;;;;5079441;28;20058;-66
2022/08/23 07:36:13;;;;;;;14.77;10.43;;;;;;;;;;5088923;28;20106;-66
2022/08/23 07:38:39;;;;;;;15.43;10.38;;;;;;;;;;5100850;27;20097;-68
2022/08/23 07:41:05;;;;;;;13.85;9.75;;;;;;;;;;5084221;28;20111;-68
2022/08/23 07:43:33;;;;;;;12.85;9.18;;;;;;;;;;5086474;28;20047;-67
2022/08/23 07:45:59;;;;;;;11.95;8.80;;;;;;;;;;5085984;28;20040;-69
2022/08/23 07:48:25;;;;;;;12.93;8.93;;;;;;;;;;5076627;28;20080;-68
2022/08/23 07:50:52;;;;;;;14.35;8.75;;;;;;;;;;5080942;28;20476;-68
2022/08/23 07:53:19;;;;;;;12.60;8.60;;;;;;;;;;5076983;28;20106;-67
2022/08/23 07:55:45;;;;;;;18.30;10.07;;;;;;;;;;5076919;28;20151;-66
2022/08/23 07:58:11;;;;;;;15.52;9.68;;;;;;;;;;5082125;28;20048;-67
2022/08/23 08:00:38;;;;;;;13.73;10.10;;;;;;;;;;5088717;28;20117;-67
2022/08/23 08:03:04;;;;;;;12.05;8.45;;;;;;;;;;5097182;28;20483;-67
2022/08/23 08:05:32;;;;;;;13.35;8.35;;;;;;;;;;5096390;28;20394;-66
2022/08/23 08:07:58;;;;;;;10.30;8.73;;;;;;;;;;5096295;28;20134;-66
2022/08/23 08:10:25;;;;;;;12.25;9.32;;;;;;;;;;5093428;28;20391;-67
2022/08/23 08:12:51;;;;;;;14.35;8.10;;;;;;;;;;5091606;28;20381;-67
2022/08/23 08:15:18;;;;;;;14.93;7.75;;;;;;;;;;5089724;28;20055;-67
2022/08/23 08:17:47;;;;;;;11.38;7.75;;;;;;;;;;5087329;28;20482;-67
2022/08/23 08:20:14;;;;;;;13.27;8.25;;;;;;;;;;5087827;28;20455;-67
2022/08/23 08:22:40;;;;;;;9.95;6.90;;;;;;;;;;5084717;28;20036;-66
2022/08/23 08:25:07;;;;;;;12.15;7.10;;;;;;;;;;5103665;28;20189;-67
2022/08/23 08:27:33;;;;;;;12.48;7.05;;;;;;;;;;5093505;28;20048;-67
2022/08/23 08:30:00;;;;;;;11.40;6.00;;;;;;;;;;5094047;28;20052;-67
2022/08/23 08:32:26;;;;;;;10.05;5.90;;;;;;;;;;5098675;28;20039;-67
2022/08/23 08:34:52;;;;;;;12.80;6.60;;;;;;;;;;5099080;28;20040;-67
2022/08/23 08:37:18;;;;;;;11.23;5.70;;;;;;;;;;5100973;28;20097;-67
2022/08/23 08:39:45;;;;;;;9.23;5.53;;;;;;;;;;5096817;28;20500;-67
2022/08/23 08:42:12;;;;;;;7.60;5.25;;;;;;;;;;5075495;28;20079;-67
2022/08/23 08:44:44;;;;;;;9.18;5.25;;;;;;;;;;5095869;28;20051;-67
2022/08/23 08:47:20;;;;;;;12.77;6.00;;;;;;;;;;5095330;28;20044;-67
2022/08/23 08:49:58;;;;;;;13.88;5.35;;;;;;;;;;5092284;28;20044;-67
2022/08/23 08:52:26;;;;;;;10.38;5.00;;;;;;;;;;5093352;28;20032;-67
2022/08/23 08:54:58;;;;;;;8.98;4.45;;;;;;;;;;5093836;28;20066;-67
2022/08/23 08:57:24;;;;;;;8.90;4.50;;;;;;;;;;5098298;28;20112;-66
2022/08/23 08:59:55;;;;;;;9.80;4.53;;;;;;;;;;5097555;28;20052;-67
2022/08/23 09:02:21;;;;;;;12.07;5.00;;;;;;;;;;5094931;28;20044;-67
2022/08/23 09:04:48;;;;;;;9.63;4.95;;;;;;;;;;5101999;28;20211;-67
2022/08/23 09:07:14;;;;;;;9.43;4.82;;;;;;;;;;5101378;28;20051;-67
2022/08/23 09:09:56;;;;;;;11.55;3.80;;;;;;;;;;5089217;28;20050;-67
2022/08/23 09:12:22;;;;;;;10.32;4.20;;;;;;;;;;5088956;28;20051;-67
2022/08/23 09:14:48;;;;;;;10.45;4.35;;;;;;;;;;5069150;28;20044;-67
2022/08/23 09:17:21;;;;;;;8.60;4.63;;;;;;;;;;5091723;28;20399;-67
2022/08/23 09:19:49;;;;;;;10.48;4.38;;;;;;;;;;5095358;28;20501;-67
2022/08/23 09:22:19;;;;;;;7.93;4.90;;;;;;;;;;5100551;28;20291;-67
2022/08/23 09:24:45;;;;;;;13.07;5.50;;;;;;;;;;5096445;28;20043;-67
2022/08/23 09:27:12;;;;;;;12.88;5.30;;;;;;;;;;5093721;28;20183;-67
2022/08/23 09:29:39;;;;;;;8.40;4.47;;;;;;;;;;5091499;28;20138;-67
2022/08/23 09:32:24;;;;;;;9.43;5.55;;;;;;;;;;5087488;28;20198;-67
2022/08/23 09:34:51;;;;;;;11.40;5.80;;;;;;;;;;5106532;27;20048;-67
2022/08/23 09:37:19;;;;;;;11.55;6.50;;;;;;;;;;5087047;28;20036;-67
2022/08/23 09:39:48;;;;;;;11.85;6.05;;;;;;;;;;5088472;28;20051;-67
2022/08/23 09:42:29;;;;;;;13.00;6.25;;;;;;;;;;5092684;28;20450;-67
2022/08/23 09:44:56;;;;;;;14.25;7.28;;;;;;;;;;5087672;28;20043;-67
2022/08/23 09:47:30;;;;;;;11.02;7.05;;;;;;;;;;5096503;28;20047;-67
2022/08/23 09:50:06;;;;;;;9.35;6.28;;;;;;;;;;5103802;28;20047;-67
2022/08/23 09:52:34;;;;;;;10.70;7.80;;;;;;;;;;5099886;28;20042;-67
2022/08/23 09:55:03;;;;;;;12.32;7.63;;;;;;;;;;5098963;28;20069;-67
2022/08/23 09:57:32;;;;;;;14.13;7.28;;;;;;;;;;5096160;28;20493;-67
2022/08/23 10:00:01;;;;;;;15.82;8.20;;;;;;;;;;5093894;28;20411;-67
2022/08/23 10:02:31;;;;;;;10.43;7.63;;;;;;;;;;5076460;28;20161;-67
2022/08/23 10:05:00;;;;;;;13.48;7.65;;;;;;;;;;5093059;28;20035;-67
2022/08/23 10:07:32;;;;;;;9.82;6.70;;;;;;;;;;5093796;28;20482;-67
2022/08/23 10:10:17;;;;;;;12.27;7.20;;;;;;;;;;5089860;28;20138;-67
2022/08/23 10:12:43;;;;;;;11.75;6.40;;;;;;;;;;5085642;28;20402;-67
2022/08/23 10:15:09;;;;;;;9.02;4.00;;;;;;;;;;5083566;28;20113;-67
2022/08/23 10:17:51;;;;;;;10.93;5.70;;;;;;;;;;5093662;28;20059;-67
2022/08/23 10:20:35;;;;;;;7.75;4.82;;;;;;;;;;5094594;28;20075;-67
2022/08/23 10:23:08;;;;;;;8.75;6.55;;;;;;;;;;5096461;28;20058;-67
2022/08/23 10:25:34;;;;;;;11.05;5.95;;;;;;;;;;5096446;28;20027;-67
2022/08/23 10:30:53;;;;;;;8.73;5.30;;;;;;;;;;5095857;28;20051;-67
2022/08/23 10:33:26;;;;;;;10.57;5.07;;;;;;;;;;5092812;28;20051;-67
2022/08/23 10:36:00;;;;;;;9.27;5.15;;;;;;;;;;5071059;28;20039;-67
2022/08/23 10:38:44;;;;;;;11.75;4.57;;;;;;;;;;5104163;27;20506;-67
2022/08/23 10:41:10;;;;;;;9.88;4.35;;;;;;;;;;5089343;28;20448;-67
2022/08/23 10:43:54;;;;;;;7.60;3.72;;;;;;;;;;5088014;28;20555;-67
2022/08/23 10:46:21;;;;;;;6.82;3.22;;;;;;;;;;5086892;28;20130;-67
2022/08/23 10:48:50;;;;;;;11.88;4.30;;;;;;;;;;5110906;27;20461;-67
2022/08/23 10:51:19;;;;;;;10.63;3.85;;;;;;;;;;5092024;28;20066;-67
2022/08/23 10:53:48;;;;;;;7.03;3.63;;;;;;;;;;5091747;28;20123;-68
2022/08/23 10:56:19;;;;;;;7.25;3.28;;;;;;;;;;5096233;28;20039;-68
2022/08/23 10:58:55;;;;;;;7.95;3.00;;;;;;;;;;5087791;28;20134;-68
2022/08/23 11:01:24;;;;;;;7.82;3.35;;;;;;;;;;5089015;28;20032;-68
2022/08/23 11:04:00;;;;;;;8.43;3.03;;;;;;;;;;5095835;28;20142;-67
2022/08/23 11:06:38;;;;;;;6.00;2.40;;;;;;;;;;5095348;28;20043;-67
2022/08/23 11:09:06;;;;;;;11.95;3.40;;;;;;;;;;5092873;28;20039;-67
2022/08/23 11:11:39;;;;;;;8.77;3.67;;;;;;;;;;5094322;28;20466;-67
2022/08/23 11:14:07;;;;;;;12.27;3.33;;;;;;;;;;5094372;28;20039;-67
2022/08/23 11:16:34;;;;;;;6.07;2.85;;;;;;;;;;5098855;28;20120;-67
2022/08/23 11:19:00;;;;;;;9.32;3.22;;;;;;;;;;5091804;28;20104;-67
2022/08/23 11:21:32;;;;;;;7.72;2.13;;;;;;;;;;5090279;28;20048;-67
2022/08/23 11:23:58;;;;;;;7.07;2.10;;;;;;;;;;5090854;28;20055;-67
2022/08/23 11:26:25;;;;;;;9.73;2.83;;;;;;;;;;5088931;28;20051;-67
2022/08/23 11:28:52;;;;;;;6.78;3.17;;;;;;;;;;5090454;28;20035;-67
2022/08/23 11:31:26;;;;;;;8.32;2.55;;;;;;;;;;5087513;28;20036;-67
2022/08/23 11:34:00;;;;;;;6.55;2.47;;;;;;;;;;5088156;28;20400;-67
2022/08/23 11:36:27;;;;;;;7.90;2.40;;;;;;;;;;5091205;28;20032;-67
2022/08/23 11:38:54;;;;;;;9.43;2.45;;;;;;;;;;5085312;28;20046;-67
2022/08/23 11:41:24;;;;;;;8.35;3.05;;;;;;;;;;5081030;28;20959;-67
2022/08/23 11:43:53;;;;;;;9.02;2.67;;;;;;;;;;5078597;28;20039;-67
2022/08/23 11:46:24;;;;;;;8.80;3.13;;;;;;;;;;5079665;28;20100;-66
2022/08/23 11:49:11;;;;;;;6.95;2.33;;;;;;;;;;5080984;28;20053;-67
2022/08/23 11:51:49;;;;;;;7.43;2.13;;;;;;;;;;5084575;28;20051;-67
2022/08/23 11:54:15;;;;;;;7.57;2.25;;;;;;;;;;5088256;28;20084;-67
2022/08/23 11:56:52;;;;;;;6.22;2.25;;;;;;;;;;5085749;28;20031;-67
2022/08/23 11:59:37;;;;;;;7.78;3.13;;;;;;;;;;5086923;28;20689;-67
2022/08/23 12:02:22;;;;;;;7.15;2.35;;;;;;;;;;5082446;28;20056;-67
2022/08/23 12:04:51;;;;;;;9.55;2.80;;;;;;;;;;5078876;28;20099;-67
2022/08/23 12:07:38;;;;;;;5.70;2.35;;;;;;;;;;5080627;28;20055;-67
2022/08/23 12:10:05;;;;;;;9.20;2.92;;;;;;;;;;5083160;28;20048;-67
2022/08/23 12:12:33;;;;;;;9.75;3.08;;;;;;;;;;5091861;28;20032;-67
2022/08/23 12:15:01;;;;;;;6.72;2.92;;;;;;;;;;5087360;28;20058;-65
2022/08/23 12:17:27;;;;;;;8.85;2.88;;;;;;;;;;5097101;28;20486;-65
2022/08/23 12:19:58;;;;;;;7.30;2.50;;;;;;;;;;5094942;28;20140;-65
2022/08/23 12:22:26;;;;;;;7.43;2.28;;;;;;;;;;5094606;28;20402;-67
2022/08/23 12:24:55;;;;;;;7.45;2.30;;;;;;;;;;5091727;28;20036;-67
2022/08/23 12:27:32;;;;;;;7.35;3.17;;;;;;;;;;5088804;28;20069;-68
2022/08/23 12:29:59;;;;;;;7.75;2.63;;;;;;;;;;5090064;28;20411;-67
2022/08/23 12:32:32;;;;;;;5.53;2.30;;;;;;;;;;5083871;28;20052;-67
2022/08/23 12:35:08;;;;;;;7.40;2.70;;;;;;;;;;5101620;27;20051;-67
2022/08/23 12:37:40;;;;;;;9.32;2.63;;;;;;;;;;5081715;28;20547;-67
2022/08/23 12:40:08;;;;;;;7.63;2.97;;;;;;;;;;5086689;28;20075;-67
2022/08/23 12:42:36;;;;;;;8.88;2.55;;;;;;;;;;5082535;28;20136;-67
2022/08/23 12:45:07;;;;;;;9.68;3.40;;;;;;;;;;5082139;28;20036;-67
2022/08/23 12:47:34;;;;;;;13.15;3.25;;;;;;;;;;5087086;28;20116;-67
2022/08/23 12:50:02;;;;;;;8.02;3.17;;;;;;;;;;5087151;28;20040;-67
2022/08/23 12:52:30;;;;;;;15.05;3.30;;;;;;;;;;5085127;28;20134;-67
2022/08/23 12:54:56;;;;;;;6.68;2.22;;;;;;;;;;5096241;28;20476;-67
2022/08/23 12:57:31;;;;;;;10.77;2.80;;;;;;;;;;5103776;27;20051;-67
2022/08/23 13:00:08;;;;;;;7.63;2.22;;;;;;;;;;5087827;28;20127;-67
2022/08/23 13:02:34;;;;;;;9.80;2.88;;;;;;;;;;5082696;28;20162;-67
2022/08/23 13:05:12;;;;;;;9.48;2.85;;;;;;;;;;5082946;28;20067;-67
2022/08/23 13:07:39;;;;;;;5.78;2.75;;;;;;;;;;5085416;28;20131;-65
2022/08/23 13:10:06;;;;;;;7.07;2.92;;;;;;;;;;5085205;28;20036;-65
2022/08/23 13:12:33;;;;;;;6.15;2.47;;;;;;;;;;5098595;27;20047;-65
2022/08/23 13:15:01;;;;;;;11.65;3.00;;;;;;;;;;5079818;28;20121;-65
2022/08/23 13:17:29;;;;;;;8.25;2.70;;;;;;;;;;5085442;28;20051;-65
2022/08/23 13:20:13;;;;;;;8.43;2.33;;;;;;;;;;5081530;28;20122;-65
2022/08/23 13:22:54;;;;;;;8.35;2.90;;;;;;;;;;5083719;28;20474;-65
2022/08/23 13:25:26;;;;;;;7.07;2.63;;;;;;;;;;5090484;28;20374;-65
2022/08/23 13:27:54;;;;;;;7.00;2.25;;;;;;;;;;5104898;28;20041;-65
2022/08/23 13:30:22;;;;;;;7.88;2.53;;;;;;;;;;5095133;28;20044;-65
2022/08/23 13:32:50;;;;;;;8.48;3.22;;;;;;;;;;5085473;28;20115;-65
2022/08/23 13:35:24;;;;;;;9.57;3.22;;;;;;;;;;5088956;28;20071;-65
2022/08/23 13:37:52;;;;;;;10.52;3.03;;;;;;;;;;5090592;28;20038;-65
2022/08/23 13:40:21;;;;;;;11.23;3.53;;;;;;;;;;5089049;28;20064;-65
2022/08/23 13:42:51;;;;;;;10.98;2.85;;;;;;;;;;5087177;28;20370;-65
2022/08/23 13:45:21;;;;;;;10.63;3.28;;;;;;;;;;5085384;28;20040;-65
2022/08/23 13:47:48;;;;;;;8.88;2.65;;;;;;;;;;5083077;28;20060;-65
2022/08/23 13:50:25;;;;;;;11.30;3.70;;;;;;;;;;5081393;28;20543;-65
2022/08/23 13:52:51;;;;;;;11.82;3.10;;;;;;;;;;5083143;28;20128;-65
2022/08/23 13:55:17;;;;;;;12.30;4.00;;;;;;;;;;5083449;28;20040;-65
2022/08/23 13:57:43;;;;;;;11.10;4.30;;;;;;;;;;5085681;28;20048;-65
2022/08/23 14:00:10;;;;;;;10.20;4.15;;;;;;;;;;5089993;28;20037;-65
2022/08/23 14:02:37;;;;;;;13.05;3.63;;;;;;;;;;5084008;28;20478;-65
2022/08/23 14:05:05;;;;;;;10.43;3.47;;;;;;;;;;5071915;28;20521;-65
2022/08/23 14:07:31;;;;;;;8.95;4.70;;;;;;;;;;5088382;28;20054;-65
2022/08/23 14:09:58;;;;;;;11.05;4.32;;;;;;;;;;5079295;28;20498;-65
2022/08/23 14:12:26;;;;;;;9.95;4.00;;;;;;;;;;5082666;28;20051;-65
2022/08/23 14:14:53;;;;;;;8.73;3.90;;;;;;;;;;5083288;28;20126;-65
2022/08/23 14:17:19;;;;;;;10.10;3.88;;;;;;;;;;5084852;28;20477;-66
2022/08/23 14:19:46;;;;;;;11.05;4.25;;;;;;;;;;5082662;28;20046;-65
2022/08/23 14:22:13;;;;;;;9.50;3.72;;;;;;;;;;5085398;28;20418;-65
2022/08/23 14:24:39;;;;;;;8.77;3.25;;;;;;;;;;5084308;28;20041;-65
2022/08/23 14:27:06;;;;;;;7.60;3.80;;;;;;;;;;5080785;28;20499;-65
2022/08/23 14:29:32;;;;;;;10.93;4.03;;;;;;;;;;5080782;28;20053;-65
2022/08/23 14:31:59;;;;;;;12.05;4.25;;;;;;;;;;5083643;28;20052;-66
2022/08/23 14:34:26;;;;;;;11.60;4.20;;;;;;;;;;5087024;28;20140;-65
2022/08/23 14:36:54;;;;;;;9.45;4.90;;;;;;;;;;5089394;28;20088;-65
2022/08/23 14:39:20;;;;;;;12.05;3.70;;;;;;;;;;5081437;28;20040;-65
2022/08/23 14:41:47;;;;;;;8.45;3.40;;;;;;;;;;5081258;28;20047;-65
2022/08/23 14:44:15;;;;;;;13.23;3.55;;;;;;;;;;5085216;28;20036;-65
2022/08/23 14:46:41;;;;;;;9.85;3.22;;;;;;;;;;5084319;28;20051;-65
2022/08/23 14:49:08;;;;;;;10.55;3.28;;;;;;;;;;5080077;28;20167;-65